KASE/ASE METAR and TAF weather

Enter ICAO airport designator
Station Type Date Time Source
KASE METAR 2022/01/29 10:53 UTC NOAA

KASE 291053Z AUTO 18007KT 10SM CLR M17/M22 A3043 RMK AO2 SLP357 T11671222


Station Type Date Time Source
KASE Decoded METAR 2022/01/29 10:53 UTC NOAA

ASPEN-PITKIN COUNTY AIRPORT, CO, United States (KASE) 39-14N 106-52W 2354M
Jan 29, 2022 - 05:53 AM EST / 2022.01.29 1053 UTC
Wind: from the S (180 degrees) at 8 MPH (7 KT):0
Visibility: 10 mile(s):0
Sky conditions: clear
Temperature: 1.9 F (-16.7 C)
Windchill: -11 F (-24 C):2
Dew Point: -8.0 F (-22.2 C)
Relative Humidity: 62%
Pressure (altimeter): 30.43 in. Hg (1030 hPa)
ob: KASE 291053Z AUTO 18007KT 10SM CLR M17/M22 A3043 RMK AO2 SLP357 T11671222
cycle: 11

Station Type Date Time Source
KASE TAF 2022/01/29 06:30 UTC NOAA

TAF KASE 290528Z 2906/3006 24007KT P6SM SKC
FM291800 33008KT P6SM SKC

Example: see airport list